sensor_id;sensor_type;location;lat;lon;timestamp;P1;durP1;ratioP1;P2;durP2;ratioP2
73421;SDS011;61637;47.760;-122.022;2023-06-19T00:00:01;6.8;;;2.1;;
73421;SDS011;61637;47.760;-122.022;2023-06-19T00:02:02;3.8;;;1.4;;
73421;SDS011;61637;47.760;-122.022;2023-06-19T00:04:01;4.1;;;1.3;;
73421;SDS011;61637;47.760;-122.022;2023-06-19T00:06:00;4.1;;;1.3;;
73421;SDS011;61637;47.760;-122.022;2023-06-19T00:08:00;4.2;;;1.5;;
73421;SDS011;61637;47.760;-122.022;2023-06-19T00:10:01;4.6;;;1.7;;
73421;SDS011;61637;47.760;-122.022;2023-06-19T00:12:01;4.5;;;1.5;;
73421;SDS011;61637;47.760;-122.022;2023-06-19T00:14:01;5.3;;;1.8;;
73421;SDS011;61637;47.760;-122.022;2023-06-19T00:16:01;3.9;;;1.6;;
73421;SDS011;61637;47.760;-122.022;2023-06-19T00:18:01;4.9;;;1.7;;
73421;SDS011;61637;47.760;-122.022;2023-06-19T00:20:01;4.6;;;1.6;;
73421;SDS011;61637;47.760;-122.022;2023-06-19T00:22:01;4.6;;;1.6;;
73421;SDS011;61637;47.760;-122.022;2023-06-19T00:24:00;5.2;;;1.6;;
73421;SDS011;61637;47.760;-122.022;2023-06-19T00:26:01;4.6;;;1.4;;
73421;SDS011;61637;47.760;-122.022;2023-06-19T00:28:00;3.9;;;1.4;;
73421;SDS011;61637;47.760;-122.022;2023-06-19T00:30:01;4.1;;;1.3;;
73421;SDS011;61637;47.760;-122.022;2023-06-19T00:32:01;4.0;;;1.4;;
73421;SDS011;61637;47.760;-122.022;2023-06-19T00:34:01;4.1;;;1.5;;
73421;SDS011;61637;47.760;-122.022;2023-06-19T00:36:00;4.4;;;1.4;;
73421;SDS011;61637;47.760;-122.022;2023-06-19T00:38:01;4.6;;;1.4;;
73421;SDS011;61637;47.760;-122.022;2023-06-19T00:40:00;4.4;;;1.4;;
73421;SDS011;61637;47.760;-122.022;2023-06-19T00:42:01;3.6;;;1.5;;
73421;SDS011;61637;47.760;-122.022;2023-06-19T00:44:01;5.1;;;1.3;;
73421;SDS011;61637;47.760;-122.022;2023-06-19T00:46:02;4.5;;;1.2;;
73421;SDS011;61637;47.760;-122.022;2023-06-19T00:48:01;4.8;;;1.4;;
73421;SDS011;61637;47.760;-122.022;2023-06-19T00:50:01;4.0;;;1.4;;
73421;SDS011;61637;47.760;-122.022;2023-06-19T00:52:02;5.4;;;1.4;;
73421;SDS011;61637;47.760;-122.022;2023-06-19T00:54:01;4.7;;;1.3;;
73421;SDS011;61637;47.760;-122.022;2023-06-19T00:56:02;5.2;;;1.6;;
73421;SDS011;61637;47.760;-122.022;2023-06-19T00:58:02;7.2;;;1.5;;
73421;SDS011;61637;47.760;-122.022;2023-06-19T01:00:01;4.6;;;1.3;;
73421;SDS011;61637;47.760;-122.022;2023-06-19T01:02:02;3.5;;;1.2;;
73421;SDS011;61637;47.760;-122.022;2023-06-19T01:04:01;3.5;;;1.2;;
73421;SDS011;61637;47.760;-122.022;2023-06-19T01:06:01;4.2;;;1.3;;
73421;SDS011;61637;47.760;-122.022;2023-06-19T01:08:07;3.6;;;1.2;;
73421;SDS011;61637;47.760;-122.022;2023-06-19T01:10:04;3.6;;;1.1;;
73421;SDS011;61637;47.760;-122.022;2023-06-19T01:12:12;5.0;;;1.2;;
73421;SDS011;61637;47.760;-122.022;2023-06-19T01:14:06;3.3;;;1.1;;
73421;SDS011;61637;47.760;-122.022;2023-06-19T01:16:03;4.8;;;1.3;;
73421;SDS011;61637;47.760;-122.022;2023-06-19T01:18:02;3.3;;;1.0;;
73421;SDS011;61637;47.760;-122.022;2023-06-19T01:20:01;4.4;;;1.2;;
73421;SDS011;61637;47.760;-122.022;2023-06-19T01:22:03;3.2;;;1.0;;
73421;SDS011;61637;47.760;-122.022;2023-06-19T01:24:00;4.3;;;1.4;;
73421;SDS011;61637;47.760;-122.022;2023-06-19T01:26:01;3.0;;;1.0;;
73421;SDS011;61637;47.760;-122.022;2023-06-19T01:28:01;3.4;;;1.0;;
73421;SDS011;61637;47.760;-122.022;2023-06-19T01:30:02;3.8;;;1.1;;
73421;SDS011;61637;47.760;-122.022;2023-06-19T01:32:06;4.2;;;1.1;;
73421;SDS011;61637;47.760;-122.022;2023-06-19T01:34:06;3.1;;;1.1;;
73421;SDS011;61637;47.760;-122.022;2023-06-19T01:36:01;4.3;;;1.1;;
73421;SDS011;61637;47.760;-122.022;2023-06-19T01:38:02;3.7;;;1.1;;
73421;SDS011;61637;47.760;-122.022;2023-06-19T01:40:03;7.0;;;1.2;;
73421;SDS011;61637;47.760;-122.022;2023-06-19T01:42:01;4.2;;;1.2;;
73421;SDS011;61637;47.760;-122.022;2023-06-19T01:44:02;3.1;;;1.1;;
73421;SDS011;61637;47.760;-122.022;2023-06-19T01:46:01;3.8;;;1.1;;
73421;SDS011;61637;47.760;-122.022;2023-06-19T01:48:01;2.8;;;1.0;;
73421;SDS011;61637;47.760;-122.022;2023-06-19T01:50:01;2.5;;;1.0;;
73421;SDS011;61637;47.760;-122.022;2023-06-19T01:52:01;5.7;;;1.1;;
73421;SDS011;61637;47.760;-122.022;2023-06-19T01:54:01;3.1;;;1.0;;
73421;SDS011;61637;47.760;-122.022;2023-06-19T01:56:01;3.4;;;1.1;;
73421;SDS011;61637;47.760;-122.022;2023-06-19T01:58:01;3.1;;;1.0;;
73421;SDS011;61637;47.760;-122.022;2023-06-19T02:00:01;2.5;;;1.0;;
73421;SDS011;61637;47.760;-122.022;2023-06-19T02:02:01;3.4;;;1.0;;
73421;SDS011;61637;47.760;-122.022;2023-06-19T02:04:01;3.0;;;1.1;;
73421;SDS011;61637;47.760;-122.022;2023-06-19T02:06:01;3.8;;;1.2;;
73421;SDS011;61637;47.760;-122.022;2023-06-19T02:08:01;3.6;;;1.1;;
73421;SDS011;61637;47.760;-122.022;2023-06-19T02:10:01;2.9;;;1.1;;
73421;SDS011;61637;47.760;-122.022;2023-06-19T02:12:01;3.0;;;1.2;;
73421;SDS011;61637;47.760;-122.022;2023-06-19T02:14:01;5.0;;;1.1;;
73421;SDS011;61637;47.760;-122.022;2023-06-19T02:16:01;4.5;;;1.5;;
73421;SDS011;61637;47.760;-122.022;2023-06-19T02:18:03;4.2;;;1.6;;
73421;SDS011;61637;47.760;-122.022;2023-06-19T02:20:01;7.3;;;1.9;;
73421;SDS011;61637;47.760;-122.022;2023-06-19T02:22:01;6.5;;;2.2;;
73421;SDS011;61637;47.760;-122.022;2023-06-19T02:24:01;4.8;;;1.9;;
73421;SDS011;61637;47.760;-122.022;2023-06-19T02:26:01;5.5;;;1.8;;
73421;SDS011;61637;47.760;-122.022;2023-06-19T02:28:01;5.2;;;2.1;;
73421;SDS011;61637;47.760;-122.022;2023-06-19T02:30:01;4.1;;;1.4;;
73421;SDS011;61637;47.760;-122.022;2023-06-19T02:32:01;3.9;;;1.3;;
73421;SDS011;61637;47.760;-122.022;2023-06-19T02:34:01;3.6;;;1.4;;
73421;SDS011;61637;47.760;-122.022;2023-06-19T02:36:01;4.1;;;1.1;;
73421;SDS011;61637;47.760;-122.022;2023-06-19T02:38:01;4.3;;;1.3;;
73421;SDS011;61637;47.760;-122.022;2023-06-19T02:40:00;3.1;;;1.1;;
73421;SDS011;61637;47.760;-122.022;2023-06-19T02:42:00;4.7;;;1.1;;
73421;SDS011;61637;47.760;-122.022;2023-06-19T02:44:01;3.5;;;1.2;;
73421;SDS011;61637;47.760;-122.022;2023-06-19T02:46:01;3.8;;;1.3;;
73421;SDS011;61637;47.760;-122.022;2023-06-19T02:48:00;5.4;;;1.2;;
73421;SDS011;61637;47.760;-122.022;2023-06-19T02:50:02;5.7;;;1.4;;
73421;SDS011;61637;47.760;-122.022;2023-06-19T02:52:01;3.3;;;1.2;;
73421;SDS011;61637;47.760;-122.022;2023-06-19T02:54:01;4.0;;;1.1;;
73421;SDS011;61637;47.760;-122.022;2023-06-19T02:56:01;4.9;;;1.3;;
73421;SDS011;61637;47.760;-122.022;2023-06-19T02:58:01;3.7;;;1.3;;
73421;SDS011;61637;47.760;-122.022;2023-06-19T03:00:00;3.7;;;1.2;;
73421;SDS011;61637;47.760;-122.022;2023-06-19T03:02:01;4.8;;;1.4;;
73421;SDS011;61637;47.760;-122.022;2023-06-19T03:04:01;4.5;;;1.3;;
73421;SDS011;61637;47.760;-122.022;2023-06-19T03:06:01;3.4;;;1.3;;
73421;SDS011;61637;47.760;-122.022;2023-06-19T03:08:00;4.6;;;1.6;;
73421;SDS011;61637;47.760;-122.022;2023-06-19T03:10:01;4.5;;;1.4;;
73421;SDS011;61637;47.760;-122.022;2023-06-19T03:12:00;4.7;;;1.4;;
73421;SDS011;61637;47.760;-122.022;2023-06-19T03:14:01;3.7;;;1.2;;
73421;SDS011;61637;47.760;-122.022;2023-06-19T03:16:00;5.8;;;1.4;;
73421;SDS011;61637;47.760;-122.022;2023-06-19T03:18:01;4.1;;;1.1;;
73421;SDS011;61637;47.760;-122.022;2023-06-19T03:20:00;3.8;;;1.4;;
73421;SDS011;61637;47.760;-122.022;2023-06-19T03:22:01;4.3;;;1.3;;
73421;SDS011;61637;47.760;-122.022;2023-06-19T03:24:01;4.1;;;1.4;;
73421;SDS011;61637;47.760;-122.022;2023-06-19T03:26:01;3.7;;;1.3;;
73421;SDS011;61637;47.760;-122.022;2023-06-19T03:28:01;3.7;;;1.2;;
73421;SDS011;61637;47.760;-122.022;2023-06-19T03:30:01;4.7;;;1.4;;
73421;SDS011;61637;47.760;-122.022;2023-06-19T03:32:01;3.4;;;1.3;;
73421;SDS011;61637;47.760;-122.022;2023-06-19T03:34:01;4.3;;;1.4;;
73421;SDS011;61637;47.760;-122.022;2023-06-19T03:36:01;7.0;;;1.5;;
73421;SDS011;61637;47.760;-122.022;2023-06-19T03:38:01;4.7;;;1.6;;
73421;SDS011;61637;47.760;-122.022;2023-06-19T03:40:01;4.2;;;1.3;;
73421;SDS011;61637;47.760;-122.022;2023-06-19T03:42:00;4.0;;;1.4;;
73421;SDS011;61637;47.760;-122.022;2023-06-19T03:44:00;7.2;;;1.6;;
73421;SDS011;61637;47.760;-122.022;2023-06-19T03:46:01;5.1;;;1.4;;
73421;SDS011;61637;47.760;-122.022;2023-06-19T03:48:00;4.8;;;1.3;;
73421;SDS011;61637;47.760;-122.022;2023-06-19T03:50:01;3.9;;;1.3;;
73421;SDS011;61637;47.760;-122.022;2023-06-19T03:52:01;3.7;;;1.2;;
73421;SDS011;61637;47.760;-122.022;2023-06-19T03:54:00;4.4;;;1.3;;
73421;SDS011;61637;47.760;-122.022;2023-06-19T03:56:01;6.8;;;1.2;;
73421;SDS011;61637;47.760;-122.022;2023-06-19T03:58:01;4.5;;;1.1;;
73421;SDS011;61637;47.760;-122.022;2023-06-19T04:00:00;4.1;;;1.3;;
73421;SDS011;61637;47.760;-122.022;2023-06-19T04:02:01;4.4;;;1.1;;
73421;SDS011;61637;47.760;-122.022;2023-06-19T04:04:00;4.1;;;1.4;;
73421;SDS011;61637;47.760;-122.022;2023-06-19T04:06:01;4.5;;;1.2;;
73421;SDS011;61637;47.760;-122.022;2023-06-19T04:08:01;2.9;;;1.0;;
73421;SDS011;61637;47.760;-122.022;2023-06-19T04:10:01;3.9;;;1.3;;
73421;SDS011;61637;47.760;-122.022;2023-06-19T04:12:02;4.6;;;1.0;;
73421;SDS011;61637;47.760;-122.022;2023-06-19T04:14:01;6.1;;;1.2;;
73421;SDS011;61637;47.760;-122.022;2023-06-19T04:16:01;3.8;;;1.1;;
73421;SDS011;61637;47.760;-122.022;2023-06-19T04:18:01;4.0;;;1.1;;
73421;SDS011;61637;47.760;-122.022;2023-06-19T04:20:01;2.9;;;0.9;;
73421;SDS011;61637;47.760;-122.022;2023-06-19T04:22:01;4.9;;;1.1;;
73421;SDS011;61637;47.760;-122.022;2023-06-19T04:24:00;7.2;;;1.3;;
73421;SDS011;61637;47.760;-122.022;2023-06-19T04:26:01;5.8;;;1.2;;
73421;SDS011;61637;47.760;-122.022;2023-06-19T04:28:00;2.5;;;0.9;;
73421;SDS011;61637;47.760;-122.022;2023-06-19T04:30:03;4.0;;;1.1;;
73421;SDS011;61637;47.760;-122.022;2023-06-19T04:32:02;3.2;;;1.2;;
73421;SDS011;61637;47.760;-122.022;2023-06-19T04:34:01;3.2;;;1.1;;
73421;SDS011;61637;47.760;-122.022;2023-06-19T04:36:01;5.1;;;1.1;;
73421;SDS011;61637;47.760;-122.022;2023-06-19T04:38:01;3.6;;;1.1;;
73421;SDS011;61637;47.760;-122.022;2023-06-19T04:40:01;5.8;;;1.1;;
73421;SDS011;61637;47.760;-122.022;2023-06-19T04:42:01;4.7;;;1.2;;
73421;SDS011;61637;47.760;-122.022;2023-06-19T04:44:00;4.7;;;1.2;;
73421;SDS011;61637;47.760;-122.022;2023-06-19T04:46:01;3.9;;;1.1;;
73421;SDS011;61637;47.760;-122.022;2023-06-19T04:48:01;3.1;;;1.1;;
73421;SDS011;61637;47.760;-122.022;2023-06-19T04:50:01;4.3;;;1.1;;
73421;SDS011;61637;47.760;-122.022;2023-06-19T04:52:01;6.5;;;1.2;;
73421;SDS011;61637;47.760;-122.022;2023-06-19T04:54:01;3.6;;;1.1;;
73421;SDS011;61637;47.760;-122.022;2023-06-19T04:56:01;5.1;;;1.0;;
73421;SDS011;61637;47.760;-122.022;2023-06-19T04:58:01;4.1;;;1.1;;
73421;SDS011;61637;47.760;-122.022;2023-06-19T05:00:01;3.9;;;1.2;;
73421;SDS011;61637;47.760;-122.022;2023-06-19T05:02:01;4.0;;;1.1;;
73421;SDS011;61637;47.760;-122.022;2023-06-19T05:04:01;4.4;;;1.2;;
73421;SDS011;61637;47.760;-122.022;2023-06-19T05:06:01;5.0;;;1.1;;
73421;SDS011;61637;47.760;-122.022;2023-06-19T05:08:02;5.9;;;1.2;;
73421;SDS011;61637;47.760;-122.022;2023-06-19T05:10:01;6.4;;;1.4;;
73421;SDS011;61637;47.760;-122.022;2023-06-19T05:12:01;3.7;;;1.2;;
73421;SDS011;61637;47.760;-122.022;2023-06-19T05:14:01;5.2;;;1.3;;
73421;SDS011;61637;47.760;-122.022;2023-06-19T05:16:00;7.2;;;1.5;;
73421;SDS011;61637;47.760;-122.022;2023-06-19T05:18:01;6.1;;;1.3;;
73421;SDS011;61637;47.760;-122.022;2023-06-19T05:20:01;4.7;;;1.2;;
73421;SDS011;61637;47.760;-122.022;2023-06-19T05:22:01;5.1;;;1.3;;
73421;SDS011;61637;47.760;-122.022;2023-06-19T05:24:01;3.7;;;1.0;;
73421;SDS011;61637;47.760;-122.022;2023-06-19T05:26:01;4.7;;;1.3;;
73421;SDS011;61637;47.760;-122.022;2023-06-19T05:28:01;5.0;;;1.2;;
73421;SDS011;61637;47.760;-122.022;2023-06-19T05:30:01;4.7;;;1.3;;
73421;SDS011;61637;47.760;-122.022;2023-06-19T05:32:01;4.1;;;1.2;;
73421;SDS011;61637;47.760;-122.022;2023-06-19T05:34:01;6.0;;;1.4;;
73421;SDS011;61637;47.760;-122.022;2023-06-19T05:36:00;4.5;;;1.2;;
73421;SDS011;61637;47.760;-122.022;2023-06-19T05:38:01;5.8;;;1.3;;
73421;SDS011;61637;47.760;-122.022;2023-06-19T05:40:01;5.4;;;1.3;;
73421;SDS011;61637;47.760;-122.022;2023-06-19T05:42:01;3.9;;;1.2;;
73421;SDS011;61637;47.760;-122.022;2023-06-19T05:44:00;7.7;;;1.2;;
73421;SDS011;61637;47.760;-122.022;2023-06-19T05:46:01;7.3;;;1.4;;
73421;SDS011;61637;47.760;-122.022;2023-06-19T05:48:01;3.8;;;1.3;;
73421;SDS011;61637;47.760;-122.022;2023-06-19T05:50:01;7.8;;;1.4;;
73421;SDS011;61637;47.760;-122.022;2023-06-19T05:52:00;4.9;;;1.2;;
73421;SDS011;61637;47.760;-122.022;2023-06-19T05:54:01;8.5;;;1.3;;
73421;SDS011;61637;47.760;-122.022;2023-06-19T05:56:01;8.3;;;1.3;;
73421;SDS011;61637;47.760;-122.022;2023-06-19T05:58:02;3.9;;;1.2;;
73421;SDS011;61637;47.760;-122.022;2023-06-19T06:00:01;6.3;;;1.4;;
73421;SDS011;61637;47.760;-122.022;2023-06-19T06:02:01;9.6;;;1.3;;
73421;SDS011;61637;47.760;-122.022;2023-06-19T06:04:01;7.7;;;1.5;;
73421;SDS011;61637;47.760;-122.022;2023-06-19T06:06:00;6.3;;;1.4;;
73421;SDS011;61637;47.760;-122.022;2023-06-19T06:08:01;6.2;;;1.2;;
73421;SDS011;61637;47.760;-122.022;2023-06-19T06:10:01;4.8;;;1.2;;
73421;SDS011;61637;47.760;-122.022;2023-06-19T06:12:00;6.1;;;1.4;;
73421;SDS011;61637;47.760;-122.022;2023-06-19T06:14:01;5.9;;;1.4;;
73421;SDS011;61637;47.760;-122.022;2023-06-19T06:16:01;3.5;;;1.1;;
73421;SDS011;61637;47.760;-122.022;2023-06-19T06:18:00;9.2;;;1.5;;
73421;SDS011;61637;47.760;-122.022;2023-06-19T06:20:01;4.9;;;1.6;;
73421;SDS011;61637;47.760;-122.022;2023-06-19T06:22:01;4.2;;;1.3;;
73421;SDS011;61637;47.760;-122.022;2023-06-19T06:24:01;6.4;;;1.2;;
73421;SDS011;61637;47.760;-122.022;2023-06-19T06:26:01;4.8;;;1.0;;
73421;SDS011;61637;47.760;-122.022;2023-06-19T06:28:00;5.6;;;1.1;;
73421;SDS011;61637;47.760;-122.022;2023-06-19T06:30:01;4.0;;;1.2;;
73421;SDS011;61637;47.760;-122.022;2023-06-19T06:32:05;3.3;;;1.1;;
73421;SDS011;61637;47.760;-122.022;2023-06-19T06:34:01;5.9;;;1.3;;
73421;SDS011;61637;47.760;-122.022;2023-06-19T06:36:01;3.9;;;1.1;;
73421;SDS011;61637;47.760;-122.022;2023-06-19T06:38:01;4.6;;;1.2;;
73421;SDS011;61637;47.760;-122.022;2023-06-19T06:40:00;3.2;;;1.0;;
73421;SDS011;61637;47.760;-122.022;2023-06-19T06:42:01;5.2;;;1.2;;
73421;SDS011;61637;47.760;-122.022;2023-06-19T06:44:01;4.0;;;1.3;;
73421;SDS011;61637;47.760;-122.022;2023-06-19T06:46:01;4.2;;;1.3;;
73421;SDS011;61637;47.760;-122.022;2023-06-19T06:48:00;3.3;;;1.0;;
73421;SDS011;61637;47.760;-122.022;2023-06-19T06:50:01;6.4;;;1.2;;
73421;SDS011;61637;47.760;-122.022;2023-06-19T06:52:00;3.7;;;1.1;;
73421;SDS011;61637;47.760;-122.022;2023-06-19T06:54:00;4.6;;;1.2;;
73421;SDS011;61637;47.760;-122.022;2023-06-19T06:56:00;3.2;;;1.2;;
73421;SDS011;61637;47.760;-122.022;2023-06-19T06:58:01;12.4;;;1.5;;
73421;SDS011;61637;47.760;-122.022;2023-06-19T07:00:01;5.4;;;1.1;;
73421;SDS011;61637;47.760;-122.022;2023-06-19T07:02:01;3.9;;;1.1;;
73421;SDS011;61637;47.760;-122.022;2023-06-19T07:04:01;3.9;;;1.3;;
73421;SDS011;61637;47.760;-122.022;2023-06-19T07:06:01;3.7;;;1.1;;
73421;SDS011;61637;47.760;-122.022;2023-06-19T07:08:00;5.5;;;1.3;;
73421;SDS011;61637;47.760;-122.022;2023-06-19T07:10:01;4.3;;;1.1;;
73421;SDS011;61637;47.760;-122.022;2023-06-19T07:12:01;4.1;;;1.3;;
73421;SDS011;61637;47.760;-122.022;2023-06-19T07:14:02;5.1;;;1.3;;
73421;SDS011;61637;47.760;-122.022;2023-06-19T07:16:00;4.5;;;1.2;;
73421;SDS011;61637;47.760;-122.022;2023-06-19T07:18:01;5.5;;;1.4;;
73421;SDS011;61637;47.760;-122.022;2023-06-19T07:20:01;3.7;;;1.2;;
73421;SDS011;61637;47.760;-122.022;2023-06-19T07:22:01;5.9;;;1.2;;
73421;SDS011;61637;47.760;-122.022;2023-06-19T07:24:02;4.2;;;1.1;;
73421;SDS011;61637;47.760;-122.022;2023-06-19T07:26:01;3.3;;;1.2;;
73421;SDS011;61637;47.760;-122.022;2023-06-19T07:28:01;4.5;;;1.4;;
73421;SDS011;61637;47.760;-122.022;2023-06-19T07:30:01;6.9;;;1.6;;
73421;SDS011;61637;47.760;-122.022;2023-06-19T07:32:00;5.7;;;1.3;;
73421;SDS011;61637;47.760;-122.022;2023-06-19T07:34:01;5.1;;;1.1;;
73421;SDS011;61637;47.760;-122.022;2023-06-19T07:36:01;3.8;;;1.3;;
73421;SDS011;61637;47.760;-122.022;2023-06-19T07:38:01;7.3;;;1.3;;
73421;SDS011;61637;47.760;-122.022;2023-06-19T07:40:00;10.3;;;1.2;;
73421;SDS011;61637;47.760;-122.022;2023-06-19T07:42:00;6.6;;;1.1;;
73421;SDS011;61637;47.760;-122.022;2023-06-19T07:44:00;5.8;;;1.2;;
73421;SDS011;61637;47.760;-122.022;2023-06-19T07:46:01;5.6;;;1.2;;
73421;SDS011;61637;47.760;-122.022;2023-06-19T07:48:00;10.9;;;1.4;;
73421;SDS011;61637;47.760;-122.022;2023-06-19T07:50:01;3.4;;;1.2;;
73421;SDS011;61637;47.760;-122.022;2023-06-19T07:52:01;6.9;;;1.2;;
73421;SDS011;61637;47.760;-122.022;2023-06-19T07:54:00;3.1;;;1.0;;
73421;SDS011;61637;47.760;-122.022;2023-06-19T07:56:00;6.4;;;1.1;;
73421;SDS011;61637;47.760;-122.022;2023-06-19T07:58:01;7.2;;;1.2;;
73421;SDS011;61637;47.760;-122.022;2023-06-19T08:00:00;5.1;;;1.2;;
73421;SDS011;61637;47.760;-122.022;2023-06-19T08:02:01;3.9;;;1.3;;
73421;SDS011;61637;47.760;-122.022;2023-06-19T08:04:00;5.8;;;1.3;;
73421;SDS011;61637;47.760;-122.022;2023-06-19T08:06:00;5.1;;;1.2;;
73421;SDS011;61637;47.760;-122.022;2023-06-19T08:08:01;3.5;;;0.9;;
73421;SDS011;61637;47.760;-122.022;2023-06-19T08:10:01;5.3;;;1.0;;
73421;SDS011;61637;47.760;-122.022;2023-06-19T08:12:01;5.9;;;1.1;;
73421;SDS011;61637;47.760;-122.022;2023-06-19T08:14:01;4.2;;;1.1;;
73421;SDS011;61637;47.760;-122.022;2023-06-19T08:16:01;6.1;;;1.2;;
73421;SDS011;61637;47.760;-122.022;2023-06-19T08:18:01;4.2;;;1.1;;
73421;SDS011;61637;47.760;-122.022;2023-06-19T08:20:01;5.6;;;1.2;;
73421;SDS011;61637;47.760;-122.022;2023-06-19T08:22:01;4.7;;;1.0;;
73421;SDS011;61637;47.760;-122.022;2023-06-19T08:24:01;4.7;;;1.1;;
73421;SDS011;61637;47.760;-122.022;2023-06-19T08:26:01;4.4;;;1.1;;
73421;SDS011;61637;47.760;-122.022;2023-06-19T08:28:00;3.0;;;1.0;;
73421;SDS011;61637;47.760;-122.022;2023-06-19T08:30:01;4.3;;;1.0;;
73421;SDS011;61637;47.760;-122.022;2023-06-19T08:32:00;4.1;;;1.0;;
73421;SDS011;61637;47.760;-122.022;2023-06-19T08:34:01;4.1;;;1.0;;
73421;SDS011;61637;47.760;-122.022;2023-06-19T08:36:01;7.2;;;1.0;;
73421;SDS011;61637;47.760;-122.022;2023-06-19T08:38:01;5.3;;;1.1;;
73421;SDS011;61637;47.760;-122.022;2023-06-19T08:40:01;3.4;;;1.0;;
73421;SDS011;61637;47.760;-122.022;2023-06-19T08:42:01;6.3;;;1.1;;
73421;SDS011;61637;47.760;-122.022;2023-06-19T08:44:00;5.7;;;1.1;;
73421;SDS011;61637;47.760;-122.022;2023-06-19T08:46:07;4.2;;;1.1;;
73421;SDS011;61637;47.760;-122.022;2023-06-19T08:48:02;4.8;;;1.1;;
73421;SDS011;61637;47.760;-122.022;2023-06-19T08:50:01;3.6;;;1.0;;
73421;SDS011;61637;47.760;-122.022;2023-06-19T08:52:02;4.3;;;1.0;;
73421;SDS011;61637;47.760;-122.022;2023-06-19T08:54:03;2.8;;;1.0;;
73421;SDS011;61637;47.760;-122.022;2023-06-19T08:56:01;4.1;;;1.1;;
73421;SDS011;61637;47.760;-122.022;2023-06-19T08:58:00;3.1;;;1.0;;
73421;SDS011;61637;47.760;-122.022;2023-06-19T09:00:01;6.2;;;1.2;;
73421;SDS011;61637;47.760;-122.022;2023-06-19T09:02:01;3.9;;;1.0;;
73421;SDS011;61637;47.760;-122.022;2023-06-19T09:04:09;5.0;;;1.1;;
73421;SDS011;61637;47.760;-122.022;2023-06-19T09:06:03;4.0;;;1.1;;
73421;SDS011;61637;47.760;-122.022;2023-06-19T09:08:01;2.9;;;1.0;;
73421;SDS011;61637;47.760;-122.022;2023-06-19T09:10:13;6.8;;;1.1;;
73421;SDS011;61637;47.760;-122.022;2023-06-19T09:12:02;4.2;;;1.3;;
73421;SDS011;61637;47.760;-122.022;2023-06-19T09:14:01;4.8;;;1.2;;
73421;SDS011;61637;47.760;-122.022;2023-06-19T09:16:05;5.6;;;1.2;;
73421;SDS011;61637;47.760;-122.022;2023-06-19T09:18:01;5.6;;;1.2;;
73421;SDS011;61637;47.760;-122.022;2023-06-19T09:20:01;4.3;;;1.1;;
73421;SDS011;61637;47.760;-122.022;2023-06-19T09:22:02;4.2;;;1.1;;
73421;SDS011;61637;47.760;-122.022;2023-06-19T09:24:04;4.6;;;1.0;;
73421;SDS011;61637;47.760;-122.022;2023-06-19T09:26:01;6.2;;;1.2;;
73421;SDS011;61637;47.760;-122.022;2023-06-19T09:28:01;4.2;;;1.1;;
73421;SDS011;61637;47.760;-122.022;2023-06-19T09:30:00;4.3;;;1.2;;
73421;SDS011;61637;47.760;-122.022;2023-06-19T09:32:00;5.2;;;1.5;;
73421;SDS011;61637;47.760;-122.022;2023-06-19T09:34:01;6.7;;;1.4;;
73421;SDS011;61637;47.760;-122.022;2023-06-19T09:36:03;5.7;;;1.2;;
73421;SDS011;61637;47.760;-122.022;2023-06-19T09:38:01;3.9;;;1.0;;
73421;SDS011;61637;47.760;-122.022;2023-06-19T09:40:03;3.0;;;1.1;;
73421;SDS011;61637;47.760;-122.022;2023-06-19T09:42:02;4.8;;;1.1;;
73421;SDS011;61637;47.760;-122.022;2023-06-19T09:44:02;8.5;;;1.2;;
73421;SDS011;61637;47.760;-122.022;2023-06-19T09:46:02;3.8;;;1.1;;
73421;SDS011;61637;47.760;-122.022;2023-06-19T09:48:00;7.2;;;1.4;;
73421;SDS011;61637;47.760;-122.022;2023-06-19T09:50:02;3.5;;;1.2;;
73421;SDS011;61637;47.760;-122.022;2023-06-19T09:52:02;4.6;;;1.1;;
73421;SDS011;61637;47.760;-122.022;2023-06-19T09:54:01;4.0;;;1.2;;
73421;SDS011;61637;47.760;-122.022;2023-06-19T09:56:00;3.2;;;1.0;;
73421;SDS011;61637;47.760;-122.022;2023-06-19T09:58:01;4.3;;;1.1;;
73421;SDS011;61637;47.760;-122.022;2023-06-19T10:00:04;5.5;;;1.2;;
73421;SDS011;61637;47.760;-122.022;2023-06-19T10:02:01;4.8;;;1.0;;
73421;SDS011;61637;47.760;-122.022;2023-06-19T10:04:06;2.4;;;1.0;;
73421;SDS011;61637;47.760;-122.022;2023-06-19T10:06:03;4.0;;;1.2;;
73421;SDS011;61637;47.760;-122.022;2023-06-19T10:08:02;4.5;;;1.1;;
73421;SDS011;61637;47.760;-122.022;2023-06-19T10:10:02;2.6;;;1.0;;
73421;SDS011;61637;47.760;-122.022;2023-06-19T10:12:11;3.4;;;1.0;;
73421;SDS011;61637;47.760;-122.022;2023-06-19T10:14:06;5.0;;;1.0;;
73421;SDS011;61637;47.760;-122.022;2023-06-19T10:16:01;5.9;;;1.3;;
73421;SDS011;61637;47.760;-122.022;2023-06-19T10:18:03;4.4;;;1.1;;
73421;SDS011;61637;47.760;-122.022;2023-06-19T10:20:01;8.4;;;1.4;;
73421;SDS011;61637;47.760;-122.022;2023-06-19T10:22:03;5.5;;;1.2;;
73421;SDS011;61637;47.760;-122.022;2023-06-19T10:24:02;5.0;;;1.2;;
73421;SDS011;61637;47.760;-122.022;2023-06-19T10:26:01;5.5;;;1.2;;
73421;SDS011;61637;47.760;-122.022;2023-06-19T10:28:02;3.1;;;1.0;;
73421;SDS011;61637;47.760;-122.022;2023-06-19T10:30:00;4.3;;;1.2;;
73421;SDS011;61637;47.760;-122.022;2023-06-19T10:32:01;4.1;;;1.0;;
73421;SDS011;61637;47.760;-122.022;2023-06-19T10:34:03;4.2;;;1.0;;
73421;SDS011;61637;47.760;-122.022;2023-06-19T10:36:12;2.8;;;1.0;;
73421;SDS011;61637;47.760;-122.022;2023-06-19T10:38:00;3.3;;;1.0;;
73421;SDS011;61637;47.760;-122.022;2023-06-19T10:40:00;6.0;;;1.1;;
73421;SDS011;61637;47.760;-122.022;2023-06-19T10:42:04;4.0;;;1.0;;
73421;SDS011;61637;47.760;-122.022;2023-06-19T10:44:03;4.9;;;1.2;;
73421;SDS011;61637;47.760;-122.022;2023-06-19T10:46:02;2.9;;;1.0;;
73421;SDS011;61637;47.760;-122.022;2023-06-19T10:48:03;3.5;;;1.2;;
73421;SDS011;61637;47.760;-122.022;2023-06-19T10:50:01;3.9;;;1.1;;
73421;SDS011;61637;47.760;-122.022;2023-06-19T10:52:01;5.4;;;1.0;;
73421;SDS011;61637;47.760;-122.022;2023-06-19T10:54:01;3.3;;;1.1;;
73421;SDS011;61637;47.760;-122.022;2023-06-19T10:56:02;3.3;;;1.0;;
73421;SDS011;61637;47.760;-122.022;2023-06-19T10:58:01;8.4;;;1.0;;
73421;SDS011;61637;47.760;-122.022;2023-06-19T11:00:02;3.9;;;1.1;;
73421;SDS011;61637;47.760;-122.022;2023-06-19T11:02:01;4.4;;;1.1;;
73421;SDS011;61637;47.760;-122.022;2023-06-19T11:04:03;6.8;;;1.2;;
73421;SDS011;61637;47.760;-122.022;2023-06-19T11:06:01;3.6;;;1.0;;
73421;SDS011;61637;47.760;-122.022;2023-06-19T11:08:00;5.4;;;1.3;;
73421;SDS011;61637;47.760;-122.022;2023-06-19T11:10:02;3.8;;;1.2;;
73421;SDS011;61637;47.760;-122.022;2023-06-19T11:12:01;3.3;;;1.1;;
73421;SDS011;61637;47.760;-122.022;2023-06-19T11:14:01;5.3;;;1.2;;
73421;SDS011;61637;47.760;-122.022;2023-06-19T11:16:01;4.5;;;1.2;;
73421;SDS011;61637;47.760;-122.022;2023-06-19T11:18:02;4.9;;;1.3;;
73421;SDS011;61637;47.760;-122.022;2023-06-19T11:20:01;3.5;;;1.0;;
73421;SDS011;61637;47.760;-122.022;2023-06-19T11:22:01;3.6;;;1.0;;
73421;SDS011;61637;47.760;-122.022;2023-06-19T11:24:01;4.9;;;1.1;;
73421;SDS011;61637;47.760;-122.022;2023-06-19T11:26:03;3.9;;;1.1;;
73421;SDS011;61637;47.760;-122.022;2023-06-19T11:28:01;3.8;;;1.1;;
73421;SDS011;61637;47.760;-122.022;2023-06-19T11:30:01;4.2;;;1.1;;
73421;SDS011;61637;47.760;-122.022;2023-06-19T11:32:12;3.5;;;1.1;;
73421;SDS011;61637;47.760;-122.022;2023-06-19T11:34:01;4.5;;;1.3;;
73421;SDS011;61637;47.760;-122.022;2023-06-19T11:36:02;4.2;;;1.4;;
73421;SDS011;61637;47.760;-122.022;2023-06-19T11:38:00;5.3;;;1.4;;
73421;SDS011;61637;47.760;-122.022;2023-06-19T11:40:01;5.0;;;1.3;;
73421;SDS011;61637;47.760;-122.022;2023-06-19T11:42:00;3.7;;;1.1;;
73421;SDS011;61637;47.760;-122.022;2023-06-19T11:44:04;5.7;;;1.3;;
73421;SDS011;61637;47.760;-122.022;2023-06-19T11:46:02;5.7;;;1.1;;
73421;SDS011;61637;47.760;-122.022;2023-06-19T11:48:05;4.7;;;1.4;;
73421;SDS011;61637;47.760;-122.022;2023-06-19T11:50:04;5.3;;;1.1;;